Flight Track Log - Related Links

Times and Time Zones

All times are in EDT time to prevent confusion due to time zone crossing. See the N789EP flight status page for this flight to view local times or setup timezone preferences in your user account.

Time Position Orientation Groundspeed Altitude Reporting Facility
EDT Latitude Longitude Course Direction KTS MPH feet Rate Location/Type
Sun 05:55:14 PM 40.3322 -79.9242 134° Southeast 91 105 2,500  Level Cleveland Center
Sun 05:56:16 PM 40.3147 -79.8939 127° Southeast 98 113 2,900 194 Climbing Cleveland Center
Sun 05:57:18 PM 40.2939 -79.8597 129° Southeast 108 124 2,900 290 Level Cleveland Center
Sun 05:58:20 PM 40.2725 -79.8269 131° Southeast 116 133 3,500 531 Climbing Cleveland Center
Sun 05:59:00 PM 40.3284 -79.8948 134° Southeast  Level FlightAware Approximate
Sun 05:59:11 PM 40.2531 -79.7997 133° Southeast 104 120 3,900  Level Cleveland Center
Sun 05:59:22 PM 40.2544 -79.7978 47° Northeast 108 124 3,900  Level Cleveland Center
Sun 05:59:23 PM 40.2517 -79.7942 135° Southeast 103 119 3,900 97 Level Cleveland Center
Sun 06:00:00 PM 40.3241 -79.8889 134° Southeast  Level FlightAware Approximate
Sun 06:00:24 PM 40.2314 -79.7608 129° Southeast 106 122 4,000  Level Cleveland Center
Sun 06:01:27 PM 40.2094 -79.7192 125° Southeast 125 144 4,000  Level Cleveland Center
Sun 06:01:30 PM 40.2061 -79.7161 145° Southeast 122 140 4,000 194 Level Cleveland Center
Sun 06:02:29 PM 40.1886 -79.6800 122° Southeast 130 150 4,200 197 Climbing Cleveland Center
Sun 06:02:31 PM 40.1842 -79.6772 154° Southeast 132 152 4,200 484 Level Cleveland Center
Sun 06:03:31 PM 40.1683 -79.6483 126° Southeast 120 138 4,700 417 Climbing Cleveland Center
Sun 06:04:26 PM 40.1456 -79.6167 133° Southeast 108 124 5,000 290 Climbing Cleveland Center
Sun 06:04:33 PM 40.1486 -79.6203 318° Northwest 108 124 5,000  Level Cleveland Center
Sun 06:05:33 PM 40.1214 -79.5803 132° Southeast 121 139 5,000  Level Cleveland Center
Sun 06:05:35 PM 40.1269 -79.5864 320° Northwest 117 135 5,000 100 Level Cleveland Center
Sun 06:06:33 PM 40.0953 -79.5436 134° Southeast 130 150 5,100 97 Climbing Cleveland Center
Sun 06:06:37 PM 40.0986 -79.5450 342° North 126 145 5,100 492 Level Cleveland Center
Sun 06:07:34 PM 40.0789 -79.5139 130° Southeast 108 124 5,600 484 Climbing Cleveland Center
Sun 06:07:39 PM 40.0803 -79.5147 335° Northwest 113 130 5,600 393 Level Cleveland Center
Sun 06:08:35 PM 40.0600 -79.4894 136° Southeast 96 110 6,000 387 Climbing Cleveland Center
Sun 06:08:41 PM 40.0619 -79.4897 354° North 100 115 6,000 400 Level Cleveland Center
Sun 06:09:35 PM 40.0414 -79.4622 134° Southeast 95 109 6,400 484 Climbing Cleveland Center
Sun 06:09:43 PM 40.0436 -79.4633 339° North 98 113 6,500 343 Climbing Cleveland Center
Sun 06:10:45 PM 40.0286 -79.4342 124° Southeast 97 112 6,800 242 Climbing Cleveland Center
Sun 06:11:47 PM 40.0094 -79.4092 135° Southeast 96 110 7,000 375 Climbing Cleveland Center
Sun 06:11:49 PM 40.0025 -79.4019 141° Southeast 106 122 7,200 484 Climbing Cleveland Center
Sun 06:12:49 PM 39.9864 -79.3753 128° Southeast 102 117 7,500 295 Climbing Cleveland Center
Sun 06:13:51 PM 39.9703 -79.3461 126° Southeast 101 116 7,800 304 Climbing Cleveland Center
Sun 06:14:08 PM 39.9689 -79.3289 96° East 98 113 7,900 222 Climbing Cleveland Center
Sun 06:14:45 PM 39.9644 -79.3092 106° East 106 122 8,000 133 Climbing Cleveland Center
Sun 06:14:53 PM 39.9647 -79.3081 72° East 100 115 8,000  Level Cleveland Center
Sun 06:15:45 PM 39.9578 -79.2644 102° East 120 138 8,000  Level Cleveland Center
Sun 06:15:56 PM 39.9606 -79.2658 339° North 108 124 8,000  Level Cleveland Center
Sun 06:16:40 PM 39.9506 -79.2253 108° East 133 153 8,000  Level Cleveland Center
Sun 06:16:58 PM 39.9517 -79.2175 79° East 137 158 8,000  Level Cleveland Center
Sun 06:17:40 PM 39.9394 -79.1803 113° Southeast 133 153 8,000  Level Cleveland Center
Sun 06:18:00 PM 39.9383 -79.1719 100° East 142 163 8,000  Level Cleveland Center
Sun 06:18:41 PM 39.9311 -79.1328 104° East 126 145 8,000  Level Cleveland Center
Sun 06:19:02 PM 39.9308 -79.1186 91° East 128 147 8,000 -98 Level Cleveland Center
Sun 06:19:42 PM 39.9244 -79.0856 104° East 131 151 7,900 -97 Descending Cleveland Center
Sun 06:20:04 PM 39.9236 -79.0747 96° East 126 145 7,900  Level Cleveland Center
Sun 06:20:42 PM 39.9156 -79.0406 107° East 129 148 7,900  Level Cleveland Center
Sun 06:21:06 PM 39.9133 -79.0275 103° East 134 154 7,900  Level Cleveland Center
Sun 06:21:43 PM 39.9025 -78.9953 114° Southeast 126 145 7,900  Level Cleveland Center
Sun 06:22:08 PM 39.9031 -78.9853 86° East 127 146 7,900  Level Cleveland Center
Sun 06:22:43 PM 39.8958 -78.9508 105° East 126 145 7,900  Level Cleveland Center
Sun 06:23:10 PM 39.8919 -78.9294 103° East 134 154 7,900 98 Level Cleveland Center
Sun 06:23:44 PM 39.8867 -78.9086 108° East 125 144 8,000 97 Climbing Cleveland Center
Sun 06:24:12 PM 39.8839 -78.8883 100° East 127 146 8,000  Level Cleveland Center
Sun 06:24:45 PM 39.8775 -78.8667 111° Southeast 120 138 8,000  Level Cleveland Center
Sun 06:25:14 PM 39.8758 -78.8464 96° East 121 139 8,000  Level Cleveland Center
Sun 06:25:45 PM 39.8708 -78.8194 104° East 122 140 8,000  Level Cleveland Center
Sun 06:26:16 PM 39.8686 -78.8033 100° East 122 140 8,000  Level Cleveland Center
Sun 06:26:46 PM 39.8636 -78.7775 104° East 123 142 8,000  Level Cleveland Center
Sun 06:27:18 PM 39.8611 -78.7594 100° East 123 142 8,000  Level Cleveland Center
Sun 06:27:47 PM 39.8564 -78.7358 105° East 123 142 8,000 -97 Level Cleveland Center
Sun 06:28:20 PM 39.8525 -78.7081 100° East 124 143 7,900 -111 Descending Cleveland Center
Sun 06:28:41 PM 39.8494 -78.6942 106° East 125 144 7,900  Level Cleveland Center
Sun 06:29:22 PM 39.8431 -78.6650 106° East 123 142 7,900  Level Cleveland Center
Sun 06:29:42 PM 39.8381 -78.6517 116° Southeast 124 143 7,900  Level Cleveland Center
Sun 06:30:24 PM 39.8342 -78.6217 100° East 124 143 7,900 98 Level Cleveland Center
Sun 06:30:43 PM 39.8311 -78.6075 106° East 122 140 8,000  Climbing Cleveland Center
Sun 06:31:27 PM 39.8300 -78.5817 93° East 116 133 7,900 -200 Descending Cleveland Center
Sun 06:31:43 PM 39.8286 -78.5608 95° East 123 142 7,800 -387 Descending Cleveland Center
Sun 06:32:29 PM 39.8236 -78.5347 104° East 129 148 7,500 -492 Descending Cleveland Center
Sun 06:32:44 PM 39.8197 -78.5133 103° East 136 157 7,300 -484 Descending Cleveland Center
Sun 06:33:31 PM 39.8139 -78.4764 102° East 139 160 7,000 -295 Descending Cleveland Center
Sun 06:33:45 PM 39.8108 -78.4661 111° Southeast 139 160 7,000 -97 Level Cleveland Center
Sun 06:34:33 PM 39.8069 -78.4308 98° East 131 151 6,900 -200 Descending Cleveland Center
Sun 06:34:45 PM 39.8017 -78.4214 126° Southeast 126 145 6,800 97 Descending Cleveland Center
Sun 06:35:35 PM 39.7978 -78.3931 100° East 116 133 7,000 179 Climbing Cleveland Center
Sun 06:35:52 PM 39.7947 -78.3769 104° East 120 138 7,000  Level Cleveland Center
Sun 06:36:37 PM 39.7906 -78.3472 100° East 128 147 7,000 90 Level Cleveland Center
Sun 06:36:59 PM 39.7861 -78.3244 104° East 129 148 7,100 97 Climbing Cleveland Center
Sun 06:37:39 PM 39.7822 -78.3042 104° East 126 145 7,100 -111 Level Cleveland Center
Sun 06:37:53 PM 39.7789 -78.2828 101° East 129 148 7,000 -97 Descending Cleveland Center
Sun 06:38:41 PM 39.7711 -78.2536 109° East 124 143 7,000  Level Cleveland Center
Sun 06:38:54 PM 39.7694 -78.2408 100° East 126 145 7,000 -97 Level Cleveland Center
Sun 06:39:43 PM 39.7642 -78.2078 102° East 127 146 6,900  Descending Cleveland Center
Sun 06:40:45 PM 39.7561 -78.1661 104° East 123 142 7,000 48 Climbing Cleveland Center
Sun 06:41:47 PM 39.7483 -78.1258 104° East 118 136 7,000 -48 Level Cleveland Center
Sun 06:42:49 PM 39.7392 -78.0853 106° East 118 136 6,900 -435 Descending Cleveland Center
Sun 06:43:51 PM 39.7269 -78.0300 106° East 123 142 6,100 -726 Descending Cleveland Center
Sun 06:44:53 PM 39.7164 -77.9797 105° East 134 154 5,400 -484 Descending Cleveland Center
Sun 06:45:55 PM 39.7044 -77.9297 107° East 141 162 5,100 -192 Descending Cleveland Center
Sun 06:46:58 PM 39.6931 -77.8850 108° East 138 159 5,000 -48 Descending Cleveland Center
Sun 06:48:00 PM 39.6892 -77.8389 96° East 133 153 5,000 48 Level Cleveland Center
Sun 06:49:02 PM 39.6775 -77.7972 110° East 128 147 5,100 48 Climbing Cleveland Center
Sun 06:50:04 PM 39.6656 -77.7456 107° East 125 144 5,100 -48 Level Cleveland Center
Sun 06:51:06 PM 39.6556 -77.6997 106° East 127 146 5,000 -48 Descending Cleveland Center
Sun 06:52:08 PM 39.6444 -77.6533 107° East 130 150 5,000  Level Cleveland Center
Sun 06:53:10 PM 39.6314 -77.6089 111° Southeast 132 152 5,000  Level Cleveland Center
Sun 06:54:12 PM 39.6206 -77.5636 107° East 132 152 5,000  Level Cleveland Center
Sun 06:55:14 PM 39.6139 -77.5183 101° East 130 150 5,000  Level Cleveland Center
Sun 06:56:16 PM 39.6047 -77.4733 105° East 129 148 5,000  Level Cleveland Center
Sun 06:57:18 PM 39.5906 -77.4189 109° East 130 150 5,000  Level Cleveland Center
Sun 06:58:20 PM 39.5819 -77.3725 104° East 131 151 5,000 48 Level Cleveland Center
Sun 06:59:22 PM 39.5731 -77.3278 104° East 130 150 5,100  Climbing Cleveland Center
Sun 07:00:24 PM 39.5628 -77.2819 106° East 130 150 5,000 -48 Descending Cleveland Center
Sun 07:01:27 PM 39.5511 -77.2347 108° East 133 153 5,000  Level Cleveland Center
Sun 07:02:29 PM 39.5397 -77.1878 107° East 135 155 5,000 -143 Level Cleveland Center
Sun 07:03:33 PM 39.5167 -77.1333 119° Southeast 139 160 4,700 -339 Descending Potomac TRACON
Sun 07:04:33 PM 39.5167 -77.0833 90° East 138 159 4,300 -350 Descending Potomac TRACON
Sun 07:05:33 PM 39.5000 -77.0333 113° Southeast 135 155 4,000 -209 Descending Potomac TRACON
Sun 07:06:28 PM 39.5000 -77.0000 90° East 127 146 3,900 -50 Descending Potomac TRACON
Sun 07:07:34 PM 39.4833 -76.9500 113° Southeast 125 144 3,900 -50 Level Potomac TRACON
Sun 07:08:28 PM 39.4833 -76.9000 90° East 133 153 3,800  Descending Potomac TRACON
Sun 07:09:28 PM 39.4667 -76.8667 123° Southeast 128 147 3,900 -200 Climbing Potomac TRACON
Sun 07:10:28 PM 39.4500 -76.8167 113° Southeast 141 162 3,400 -500 Descending Potomac TRACON
Sun 07:11:28 PM 39.4333 -76.7667 113° Southeast 140 161 2,900 -250 Descending Potomac TRACON
Sun 07:12:28 PM 39.4167 -76.7167 113° Southeast 135 155 2,900  Level Potomac TRACON
Sun 07:13:28 PM 39.4167 -76.6833 90° East 130 150 2,900  Level Potomac TRACON
Sun 07:14:28 PM 39.4000 -76.6333 113° Southeast 131 151 2,900 -50 Level Potomac TRACON
Sun 07:15:28 PM 39.3833 -76.6000 123° Southeast 128 147 2,800 -350 Descending Potomac TRACON
Sun 07:16:28 PM 39.3667 -76.5500 113° Southeast 144 166 2,200 -550 Descending Potomac TRACON
Sun 07:17:28 PM 39.3500 -76.5000 113° Southeast 134 154 1,700 -600 Descending Potomac TRACON
Sun 07:18:28 PM 39.3333 -76.4667 123° Southeast 129 148 1,000 -450 Descending Potomac TRACON
Sun 07:19:28 PM 39.3167 -76.4333 123° Southeast 103 119 800 -95 Descending Potomac TRACON
Sun 07:20:34 PM 39.3000 -76.4000 123° Southeast 95 109 800 -149 Level Potomac TRACON
Sun 07:21:29 PM 39.3167 -76.4000 360° North 58 67 500 -327 Descending Potomac TRACON
Sun 07:23:00 PM 39.3257 -76.4138 North  Level Estimated

Login

Don't have an account? Register now (free) for customized features, flight alerts, and more!